Time;durP1;ratioP1;P1;durP2;ratioP2;P2;SDS_P1;SDS_P2;PMS_P1;PMS_P2;Temp;Humidity;BMP_temperature;BMP_pressure;BME280_temperature;BME280_humidity;BME280_pressure;Samples;Min_cycle;Max_cycle;Signal;HPM_P1;HPM_P2
2022/05/08 00:00:24;;;;;;;10.50;7.00;;;;;;;;;;5026567;28;20030;-74
2022/05/08 00:02:54;;;;;;;13.25;7.47;;;;;;;;;;5023647;28;20030;-74
2022/05/08 00:05:20;;;;;;;9.52;6.47;;;;;;;;;;5022541;28;20022;-74
2022/05/08 00:07:46;;;;;;;10.63;6.47;;;;;;;;;;5026734;28;20022;-75
2022/05/08 00:10:12;;;;;;;11.23;6.65;;;;;;;;;;5020753;28;20121;-74
2022/05/08 00:12:38;;;;;;;13.05;6.85;;;;;;;;;;5022190;28;20042;-74
2022/05/08 00:15:05;;;;;;;12.15;6.65;;;;;;;;;;5022696;28;20053;-74
2022/05/08 00:17:34;;;;;;;13.30;7.28;;;;;;;;;;5016176;28;20111;-74
2022/05/08 00:20:01;;;;;;;11.18;6.63;;;;;;;;;;5033569;28;20014;-75
2022/05/08 00:22:27;;;;;;;12.68;6.05;;;;;;;;;;5015141;28;20044;-74
2022/05/08 00:24:53;;;;;;;11.20;7.20;;;;;;;;;;5018128;28;20030;-73
2022/05/08 00:27:19;;;;;;;10.70;7.07;;;;;;;;;;5016490;28;20036;-74
2022/05/08 00:29:45;;;;;;;12.10;7.10;;;;;;;;;;5018535;28;20041;-73
2022/05/08 00:32:11;;;;;;;14.05;6.68;;;;;;;;;;5024774;28;20109;-73
2022/05/08 00:34:37;;;;;;;13.90;7.00;;;;;;;;;;5024137;28;20037;-73
2022/05/08 00:37:04;;;;;;;9.48;5.90;;;;;;;;;;5013999;28;20029;-73
2022/05/08 00:39:30;;;;;;;12.10;6.63;;;;;;;;;;5025483;28;20801;-75
2022/05/08 00:41:56;;;;;;;10.70;6.32;;;;;;;;;;5023855;28;20088;-73
2022/05/08 00:44:22;;;;;;;10.52;7.38;;;;;;;;;;5020589;28;20109;-74
2022/05/08 00:46:48;;;;;;;14.38;7.35;;;;;;;;;;5021619;28;20093;-74
2022/05/08 00:49:15;;;;;;;12.25;6.32;;;;;;;;;;5012154;28;20117;-73
2022/05/08 00:51:43;;;;;;;10.88;6.82;;;;;;;;;;5015882;28;20109;-72
2022/05/08 00:54:10;;;;;;;12.57;7.28;;;;;;;;;;5015120;28;20057;-74
2022/05/08 00:56:36;;;;;;;14.70;7.07;;;;;;;;;;5012337;28;20093;-73
2022/05/08 00:59:05;;;;;;;10.93;6.10;;;;;;;;;;5020363;28;20345;-73
2022/05/08 01:01:31;;;;;;;10.63;7.13;;;;;;;;;;5013595;28;20034;-75
2022/05/08 01:03:57;;;;;;;10.40;6.78;;;;;;;;;;5016492;28;20026;-73
2022/05/08 01:06:23;;;;;;;13.70;7.70;;;;;;;;;;5010743;28;20038;-74
2022/05/08 01:08:50;;;;;;;12.20;6.70;;;;;;;;;;5021015;28;20029;-74
2022/05/08 01:11:17;;;;;;;12.88;7.30;;;;;;;;;;5024888;28;20057;-74
2022/05/08 01:13:43;;;;;;;10.55;6.07;;;;;;;;;;5018383;28;20022;-75
2022/05/08 01:16:11;;;;;;;18.00;6.82;;;;;;;;;;5020343;28;20085;-73
2022/05/08 01:18:38;;;;;;;11.88;6.80;;;;;;;;;;5016165;28;20033;-75
2022/05/08 01:21:04;;;;;;;13.10;6.47;;;;;;;;;;5014404;28;20030;-76
2022/05/08 01:23:30;;;;;;;13.27;7.00;;;;;;;;;;5022817;28;20049;-74
2022/05/08 01:25:57;;;;;;;11.32;6.60;;;;;;;;;;5022168;28;20073;-73
2022/05/08 01:28:24;;;;;;;15.23;6.40;;;;;;;;;;5019238;28;20034;-73
2022/05/08 01:30:51;;;;;;;9.95;6.72;;;;;;;;;;5021911;28;20030;-74
2022/05/08 01:33:18;;;;;;;11.52;6.60;;;;;;;;;;5022194;28;20096;-73
2022/05/08 01:35:44;;;;;;;13.07;6.95;;;;;;;;;;5024890;28;20041;-73
2022/05/08 01:38:12;;;;;;;13.15;7.15;;;;;;;;;;5012643;28;20033;-73
2022/05/08 01:40:38;;;;;;;10.48;6.57;;;;;;;;;;5018143;28;20026;-73
2022/05/08 01:43:04;;;;;;;13.02;7.00;;;;;;;;;;5014289;28;20061;-73
2022/05/08 01:45:31;;;;;;;12.88;6.32;;;;;;;;;;5020257;28;20025;-73
2022/05/08 01:50:42;;;;;;;12.13;6.33;;;;;;;;;;5018137;28;20065;-73
2022/05/08 01:53:08;;;;;;;9.32;6.50;;;;;;;;;;5018699;28;20281;-73
2022/05/08 01:55:35;;;;;;;13.32;6.70;;;;;;;;;;5021442;28;20026;-72
2022/05/08 01:58:01;;;;;;;13.35;7.28;;;;;;;;;;5019641;28;20046;-72
2022/05/08 02:00:28;;;;;;;10.85;6.65;;;;;;;;;;5021426;28;20091;-73
2022/05/08 02:02:57;;;;;;;11.70;6.68;;;;;;;;;;5013549;28;20026;-73
2022/05/08 02:05:24;;;;;;;13.15;6.32;;;;;;;;;;5021780;28;20029;-74
2022/05/08 02:07:50;;;;;;;16.55;6.53;;;;;;;;;;5032852;28;20026;-73
2022/05/08 02:10:17;;;;;;;14.35;6.10;;;;;;;;;;5014828;28;20487;-73
2022/05/08 02:12:44;;;;;;;13.65;7.32;;;;;;;;;;5020451;28;20046;-74
2022/05/08 02:15:10;;;;;;;10.35;6.05;;;;;;;;;;5015919;28;20421;-75
2022/05/08 02:17:37;;;;;;;11.80;7.32;;;;;;;;;;5016429;28;20046;-73
2022/05/08 02:20:06;;;;;;;11.75;6.28;;;;;;;;;;5017308;28;20105;-74
2022/05/08 02:22:32;;;;;;;10.05;6.47;;;;;;;;;;5030157;28;20030;-75
2022/05/08 02:24:58;;;;;;;12.55;7.07;;;;;;;;;;5012725;28;20038;-74
2022/05/08 02:27:24;;;;;;;13.77;6.82;;;;;;;;;;5019391;28;20094;-73
2022/05/08 02:29:51;;;;;;;15.05;7.95;;;;;;;;;;5012795;28;20392;-74
2022/05/08 02:32:17;;;;;;;16.25;8.68;;;;;;;;;;5022142;28;20057;-73
2022/05/08 02:34:43;;;;;;;12.68;7.20;;;;;;;;;;5013461;28;20026;-74
2022/05/08 02:37:09;;;;;;;11.98;6.93;;;;;;;;;;5021888;28;20746;-73
2022/05/08 02:39:36;;;;;;;12.50;7.45;;;;;;;;;;5018654;28;20093;-74
2022/05/08 02:42:02;;;;;;;11.88;7.22;;;;;;;;;;5019417;28;20027;-73
2022/05/08 02:44:28;;;;;;;12.88;6.90;;;;;;;;;;5012846;28;20059;-76
2022/05/08 02:46:54;;;;;;;12.57;7.00;;;;;;;;;;5017218;28;20381;-74
2022/05/08 02:49:20;;;;;;;14.93;6.55;;;;;;;;;;5017899;28;20038;-73
2022/05/08 02:51:46;;;;;;;17.35;7.13;;;;;;;;;;5010179;28;20026;-74
2022/05/08 02:54:12;;;;;;;10.73;6.85;;;;;;;;;;5014233;28;20082;-72
2022/05/08 02:59:23;;;;;;;18.63;9.83;;;;;;;;;;5025353;28;20040;-73
2022/05/08 03:01:50;;;;;;;13.80;7.28;;;;;;;;;;5016824;28;20093;-72
2022/05/08 03:04:16;;;;;;;13.00;7.53;;;;;;;;;;5017895;28;20703;-74
2022/05/08 03:06:42;;;;;;;10.73;6.45;;;;;;;;;;5016789;28;20034;-73
2022/05/08 03:09:08;;;;;;;9.95;6.50;;;;;;;;;;5021044;28;20038;-74
2022/05/08 03:11:36;;;;;;;13.77;7.45;;;;;;;;;;5021088;28;20048;-73
2022/05/08 03:14:02;;;;;;;10.80;6.38;;;;;;;;;;5015871;28;20037;-73
2022/05/08 03:16:28;;;;;;;9.25;6.32;;;;;;;;;;5021770;28;20463;-73
2022/05/08 03:18:55;;;;;;;12.13;7.70;;;;;;;;;;5016648;28;20097;-74
2022/05/08 03:21:21;;;;;;;10.02;6.15;;;;;;;;;;5035396;28;20067;-73
2022/05/08 03:23:47;;;;;;;13.00;8.02;;;;;;;;;;5012169;28;20070;-73
2022/05/08 03:26:14;;;;;;;12.90;7.63;;;;;;;;;;5012704;28;20057;-74
2022/05/08 03:28:41;;;;;;;13.30;7.82;;;;;;;;;;5018369;28;20109;-73
2022/05/08 03:31:07;;;;;;;14.07;8.40;;;;;;;;;;5019720;28;20045;-75
2022/05/08 03:33:34;;;;;;;14.70;9.90;;;;;;;;;;5018721;28;20062;-73
2022/05/08 03:36:00;;;;;;;16.70;8.30;;;;;;;;;;5017279;28;20067;-75
2022/05/08 03:38:27;;;;;;;15.48;8.10;;;;;;;;;;5021632;28;20030;-74
2022/05/08 03:40:54;;;;;;;12.98;8.00;;;;;;;;;;5020482;28;20030;-75
2022/05/08 03:43:20;;;;;;;11.30;7.95;;;;;;;;;;5017149;28;20103;-75
2022/05/08 03:45:49;;;;;;;14.38;8.07;;;;;;;;;;5018375;28;20021;-72
2022/05/08 03:48:15;;;;;;;11.45;8.00;;;;;;;;;;5018535;28;20037;-74
2022/05/08 03:50:41;;;;;;;13.23;7.55;;;;;;;;;;5016468;28;20037;-73
2022/05/08 03:53:08;;;;;;;17.17;8.70;;;;;;;;;;5021879;28;20026;-74
2022/05/08 03:55:34;;;;;;;13.07;7.70;;;;;;;;;;5014972;28;20018;-73
2022/05/08 03:58:00;;;;;;;17.13;7.32;;;;;;;;;;5021633;28;20010;-76
2022/05/08 04:00:27;;;;;;;13.70;7.13;;;;;;;;;;5021388;28;20041;-75
2022/05/08 04:02:53;;;;;;;9.27;5.78;;;;;;;;;;5018107;28;20030;-73
2022/05/08 04:05:20;;;;;;;9.68;7.07;;;;;;;;;;5019662;28;20104;-74
2022/05/08 04:07:46;;;;;;;8.40;6.32;;;;;;;;;;5017341;28;20158;-74
2022/05/08 04:10:12;;;;;;;15.48;8.13;;;;;;;;;;5021006;28;20170;-73
2022/05/08 04:12:39;;;;;;;12.35;7.18;;;;;;;;;;5015114;28;20113;-74
2022/05/08 04:15:05;;;;;;;17.23;8.07;;;;;;;;;;5013622;28;20524;-74
2022/05/08 04:17:32;;;;;;;14.43;8.30;;;;;;;;;;5017497;28;20026;-73
2022/05/08 04:19:58;;;;;;;14.32;8.93;;;;;;;;;;5011415;28;20018;-74
2022/05/08 04:25:10;;;;;;;23.07;11.53;;;;;;;;;;5021810;28;20040;-72
2022/05/08 04:27:38;;;;;;;23.67;12.68;;;;;;;;;;5011282;28;20311;-74
2022/05/08 04:30:05;;;;;;;23.20;13.13;;;;;;;;;;5011897;28;20065;-74
2022/05/08 04:32:31;;;;;;;22.10;12.27;;;;;;;;;;5009745;28;20026;-73
2022/05/08 04:34:57;;;;;;;19.23;10.40;;;;;;;;;;5006693;28;20034;-73
2022/05/08 04:37:23;;;;;;;14.77;8.93;;;;;;;;;;5015346;28;20132;-74
2022/05/08 04:39:49;;;;;;;15.15;8.70;;;;;;;;;;5014292;28;20033;-74
2022/05/08 04:42:15;;;;;;;15.40;7.82;;;;;;;;;;5023179;28;20026;-73
2022/05/08 04:44:41;;;;;;;13.75;8.07;;;;;;;;;;5013092;28;20034;-74
2022/05/08 04:47:07;;;;;;;15.13;9.68;;;;;;;;;;5019800;28;20026;-74
2022/05/08 04:49:33;;;;;;;19.95;11.05;;;;;;;;;;5010675;28;20064;-76
2022/05/08 04:52:00;;;;;;;19.00;8.95;;;;;;;;;;5017360;28;20038;-73
2022/05/08 04:54:26;;;;;;;15.93;7.88;;;;;;;;;;5018603;28;20029;-73
2022/05/08 04:56:52;;;;;;;15.55;10.23;;;;;;;;;;5014897;28;20022;-73
2022/05/08 04:59:18;;;;;;;14.07;8.55;;;;;;;;;;5021821;28;20117;-74
2022/05/08 05:01:44;;;;;;;16.58;9.25;;;;;;;;;;5019168;28;20488;-73
2022/05/08 05:04:10;;;;;;;12.63;8.30;;;;;;;;;;5022714;28;20030;-74
2022/05/08 05:06:36;;;;;;;14.35;8.73;;;;;;;;;;5023085;28;20124;-74
2022/05/08 05:09:02;;;;;;;10.88;7.43;;;;;;;;;;5024033;28;20057;-74
2022/05/08 05:11:29;;;;;;;16.23;7.47;;;;;;;;;;5021129;28;20029;-74
2022/05/08 05:13:55;;;;;;;9.63;6.72;;;;;;;;;;5024127;28;20030;-75
2022/05/08 05:16:21;;;;;;;11.65;6.70;;;;;;;;;;5022453;28;20088;-74
2022/05/08 05:18:47;;;;;;;13.40;7.05;;;;;;;;;;5023980;28;20037;-74
2022/05/08 05:21:13;;;;;;;9.95;6.32;;;;;;;;;;5014648;28;20040;-73
2022/05/08 05:23:39;;;;;;;6.97;5.38;;;;;;;;;;5008744;28;20041;-73
2022/05/08 05:26:05;;;;;;;9.65;6.25;;;;;;;;;;5015807;28;20038;-73
2022/05/08 05:28:32;;;;;;;9.00;6.10;;;;;;;;;;5013505;28;20137;-74
2022/05/08 05:30:58;;;;;;;7.22;5.00;;;;;;;;;;5009565;28;20030;-73
2022/05/08 05:33:24;;;;;;;6.68;5.38;;;;;;;;;;5017638;28;20053;-74
2022/05/08 05:35:50;;;;;;;6.97;4.22;;;;;;;;;;5011310;28;20058;-76
2022/05/08 05:38:16;;;;;;;9.80;5.28;;;;;;;;;;5014941;28;20021;-73
2022/05/08 05:40:42;;;;;;;7.88;5.00;;;;;;;;;;5019681;28;20034;-75
2022/05/08 05:43:08;;;;;;;10.85;5.57;;;;;;;;;;5015142;28;20094;-73
2022/05/08 05:45:34;;;;;;;6.50;5.00;;;;;;;;;;5014251;28;20072;-74
2022/05/08 05:48:00;;;;;;;6.63;5.10;;;;;;;;;;5022354;28;20048;-74
2022/05/08 05:50:30;;;;;;;10.85;6.55;;;;;;;;;;5015575;28;20026;-74
2022/05/08 05:52:56;;;;;;;11.75;7.85;;;;;;;;;;5014419;28;20034;-73
2022/05/08 05:55:23;;;;;;;17.15;9.45;;;;;;;;;;5015057;28;20029;-74
2022/05/08 05:57:49;;;;;;;14.75;8.82;;;;;;;;;;5014731;28;20060;-74
2022/05/08 06:00:16;;;;;;;12.80;8.27;;;;;;;;;;5012788;28;20109;-74
2022/05/08 06:02:43;;;;;;;15.98;7.88;;;;;;;;;;5018884;28;20025;-75
2022/05/08 06:05:10;;;;;;;8.45;5.35;;;;;;;;;;5017876;28;20034;-74
2022/05/08 06:07:37;;;;;;;11.23;6.05;;;;;;;;;;5023279;28;20033;-73
2022/05/08 06:10:09;;;;;;;7.43;5.60;;;;;;;;;;5017497;28;20429;-74
2022/05/08 06:12:36;;;;;;;8.10;5.50;;;;;;;;;;5021651;28;20064;-73
2022/05/08 06:15:03;;;;;;;11.77;5.82;;;;;;;;;;5018031;28;20038;-73
2022/05/08 06:17:29;;;;;;;11.90;6.00;;;;;;;;;;5014469;28;20029;-74
2022/05/08 06:19:55;;;;;;;9.45;6.03;;;;;;;;;;5014888;28;20077;-74
2022/05/08 06:22:22;;;;;;;8.48;5.20;;;;;;;;;;5021097;28;20034;-73
2022/05/08 06:24:48;;;;;;;8.38;6.18;;;;;;;;;;5016502;28;20121;-75
2022/05/08 06:27:14;;;;;;;8.25;5.53;;;;;;;;;;5015124;28;20531;-73
2022/05/08 06:29:40;;;;;;;9.18;5.65;;;;;;;;;;5015632;28;20033;-73
2022/05/08 06:32:06;;;;;;;9.88;5.35;;;;;;;;;;5016445;28;20037;-74
2022/05/08 06:34:33;;;;;;;7.03;5.30;;;;;;;;;;5021196;28;20025;-73
2022/05/08 06:36:59;;;;;;;9.95;5.20;;;;;;;;;;5021448;28;20029;-74
2022/05/08 06:39:26;;;;;;;9.75;5.28;;;;;;;;;;5021203;28;20069;-73
2022/05/08 06:41:52;;;;;;;10.00;5.35;;;;;;;;;;5024081;28;20029;-74
2022/05/08 06:44:18;;;;;;;7.75;5.63;;;;;;;;;;5012961;28;20034;-75
2022/05/08 06:46:44;;;;;;;8.32;4.78;;;;;;;;;;5019031;28;20085;-74
2022/05/08 06:49:10;;;;;;;8.50;5.15;;;;;;;;;;5019378;28;20468;-76
2022/05/08 06:51:36;;;;;;;7.68;4.93;;;;;;;;;;5012035;28;20026;-74
2022/05/08 06:54:02;;;;;;;9.70;5.18;;;;;;;;;;5008080;28;20113;-74
2022/05/08 06:56:31;;;;;;;9.07;5.18;;;;;;;;;;5018616;28;20065;-74
2022/05/08 07:01:43;;;;;;;7.35;4.60;;;;;;;;;;5015158;28;20045;-74
2022/05/08 07:04:10;;;;;;;8.13;4.43;;;;;;;;;;5035093;28;20117;-74
2022/05/08 07:06:38;;;;;;;6.18;3.80;;;;;;;;;;5016095;28;20030;-74
2022/05/08 07:09:05;;;;;;;6.50;4.15;;;;;;;;;;5014118;28;20030;-74
2022/05/08 07:11:31;;;;;;;7.28;4.57;;;;;;;;;;5016344;28;20034;-74
2022/05/08 07:13:58;;;;;;;10.65;4.90;;;;;;;;;;5017329;28;20029;-74
2022/05/08 07:16:24;;;;;;;8.25;4.03;;;;;;;;;;5013614;28;20050;-74
2022/05/08 07:18:50;;;;;;;7.65;4.50;;;;;;;;;;5024436;28;20037;-74
2022/05/08 07:21:16;;;;;;;6.78;3.80;;;;;;;;;;5024558;28;20026;-74
2022/05/08 07:23:42;;;;;;;6.72;4.00;;;;;;;;;;5019525;28;20037;-74
2022/05/08 07:26:08;;;;;;;5.80;3.72;;;;;;;;;;5013472;28;20034;-75
2022/05/08 07:28:35;;;;;;;4.53;3.58;;;;;;;;;;5019004;28;20062;-74
2022/05/08 07:31:02;;;;;;;6.38;3.97;;;;;;;;;;5021513;28;20034;-74
2022/05/08 07:33:29;;;;;;;8.77;3.70;;;;;;;;;;5017885;28;20048;-72
2022/05/08 07:36:14;;;;;;;6.22;3.90;;;;;;;;;;5009464;28;20031;-75
2022/05/08 07:38:41;;;;;;;6.15;3.83;;;;;;;;;;5012039;28;20035;-74
2022/05/08 07:41:07;;;;;;;5.30;3.45;;;;;;;;;;5011559;28;20030;-75
2022/05/08 07:43:34;;;;;;;4.15;3.25;;;;;;;;;;5024446;28;20034;-75
2022/05/08 07:46:00;;;;;;;5.57;3.67;;;;;;;;;;5014410;28;20037;-74
2022/05/08 07:48:26;;;;;;;4.93;3.15;;;;;;;;;;5034320;28;20022;-73
2022/05/08 07:50:53;;;;;;;5.93;3.60;;;;;;;;;;5012850;28;20476;-74
2022/05/08 07:53:19;;;;;;;6.40;3.60;;;;;;;;;;5022286;28;20026;-74
2022/05/08 07:55:51;;;;;;;6.05;3.17;;;;;;;;;;5018192;28;20054;-73
2022/05/08 07:58:18;;;;;;;4.97;3.17;;;;;;;;;;5015471;28;20022;-73
2022/05/08 08:00:44;;;;;;;8.18;3.90;;;;;;;;;;5025962;28;20059;-74
2022/05/08 08:03:11;;;;;;;4.38;3.05;;;;;;;;;;5018708;28;20484;-74
2022/05/08 08:05:37;;;;;;;5.78;3.35;;;;;;;;;;5019842;28;20030;-72
2022/05/08 08:08:03;;;;;;;7.85;3.92;;;;;;;;;;5016666;28;20026;-74
2022/05/08 08:10:29;;;;;;;4.22;3.25;;;;;;;;;;5014816;28;20114;-74
2022/05/08 08:12:56;;;;;;;5.65;3.33;;;;;;;;;;5017512;28;20026;-73
2022/05/08 08:15:22;;;;;;;5.30;3.30;;;;;;;;;;5015388;28;20101;-73
2022/05/08 08:17:49;;;;;;;4.57;3.40;;;;;;;;;;5023855;28;20032;-74
2022/05/08 08:20:15;;;;;;;3.83;2.95;;;;;;;;;;5019585;28;20038;-74
2022/05/08 08:22:41;;;;;;;5.53;3.00;;;;;;;;;;5018554;28;20037;-73
2022/05/08 08:25:07;;;;;;;7.88;3.28;;;;;;;;;;5018309;28;20030;-73
2022/05/08 08:27:33;;;;;;;4.07;3.35;;;;;;;;;;5027313;28;20053;-75
2022/05/08 08:30:01;;;;;;;5.10;2.55;;;;;;;;;;5016153;28;20053;-72
2022/05/08 08:32:27;;;;;;;4.38;2.42;;;;;;;;;;5031101;28;20122;-73
2022/05/08 08:34:54;;;;;;;3.80;2.20;;;;;;;;;;5014250;28;20045;-74
2022/05/08 08:37:20;;;;;;;5.05;2.20;;;;;;;;;;5019504;28;20034;-75
2022/05/08 08:39:46;;;;;;;4.22;2.50;;;;;;;;;;5013011;28;20026;-74
2022/05/08 08:42:28;;;;;;;3.15;1.98;;;;;;;;;;5013814;28;20125;-74
2022/05/08 08:47:46;;;;;;;2.88;1.90;;;;;;;;;;5018448;28;20232;-75
2022/05/08 08:50:12;;;;;;;4.35;1.98;;;;;;;;;;5014119;28;20546;-75
2022/05/08 08:52:39;;;;;;;2.13;1.92;;;;;;;;;;5015986;28;20089;-74
2022/05/08 08:55:08;;;;;;;4.13;1.98;;;;;;;;;;5020920;28;20029;-75
2022/05/08 08:57:35;;;;;;;3.75;1.92;;;;;;;;;;5020814;28;20044;-75
2022/05/08 09:00:01;;;;;;;6.05;2.42;;;;;;;;;;5024100;28;20026;-76
2022/05/08 09:02:27;;;;;;;4.22;2.25;;;;;;;;;;5024357;28;20037;-75
2022/05/08 09:04:54;;;;;;;3.13;2.20;;;;;;;;;;5023258;28;20036;-72
2022/05/08 09:07:39;;;;;;;3.50;2.05;;;;;;;;;;5016916;28;20026;-75
2022/05/08 09:10:16;;;;;;;3.28;2.38;;;;;;;;;;5030227;28;20030;-74
2022/05/08 09:12:43;;;;;;;3.80;2.10;;;;;;;;;;5017350;28;20093;-74
2022/05/08 09:15:19;;;;;;;3.05;2.10;;;;;;;;;;5022901;28;20659;-75
2022/05/08 09:17:46;;;;;;;3.05;2.03;;;;;;;;;;5013793;28;20057;-74
2022/05/08 09:20:26;;;;;;;2.60;1.98;;;;;;;;;;5023174;28;20010;-75
2022/05/08 09:23:01;;;;;;;3.85;2.20;;;;;;;;;;5025378;28;20038;-73
2022/05/08 09:25:43;;;;;;;3.03;1.90;;;;;;;;;;5012633;28;20041;-74
2022/05/08 09:28:10;;;;;;;3.20;2.20;;;;;;;;;;5022332;28;20030;-76
2022/05/08 09:30:53;;;;;;;4.25;2.10;;;;;;;;;;5016872;28;20044;-74
2022/05/08 09:33:26;;;;;;;5.72;2.17;;;;;;;;;;5018134;28;20018;-75
2022/05/08 09:35:52;;;;;;;3.88;2.20;;;;;;;;;;5007579;28;20034;-72
2022/05/08 09:38:19;;;;;;;4.30;2.25;;;;;;;;;;5025279;28;20029;-76
2022/05/08 09:40:45;;;;;;;3.65;2.10;;;;;;;;;;5012482;28;20034;-75
2022/05/08 09:43:29;;;;;;;4.13;2.05;;;;;;;;;;5017067;28;20025;-75
2022/05/08 09:45:59;;;;;;;5.72;2.53;;;;;;;;;;5019143;28;20065;-74
2022/05/08 09:48:26;;;;;;;3.13;2.10;;;;;;;;;;5020517;28;20065;-74
2022/05/08 09:50:54;;;;;;;2.80;2.10;;;;;;;;;;5016731;28;20109;-76
2022/05/08 09:53:21;;;;;;;3.20;2.30;;;;;;;;;;5017976;28;20034;-74
2022/05/08 09:55:47;;;;;;;3.80;2.42;;;;;;;;;;5005745;28;20025;-75
2022/05/08 09:58:13;;;;;;;2.85;2.33;;;;;;;;;;5017421;28;20026;-75
2022/05/08 10:00:40;;;;;;;2.88;2.35;;;;;;;;;;5015974;28;20022;-74
2022/05/08 10:03:09;;;;;;;3.03;2.30;;;;;;;;;;5020919;28;20017;-74
2022/05/08 10:05:37;;;;;;;3.33;2.45;;;;;;;;;;5009896;28;20033;-75
2022/05/08 10:08:04;;;;;;;3.28;2.30;;;;;;;;;;5017509;28;20022;-75
2022/05/08 10:16:40;;;;;;;2.75;2.30;;;;;;;;;;5019093;28;20053;-75
2022/05/08 10:19:19;;;;;;;5.65;2.50;;;;;;;;;;5016220;28;20014;-74
2022/05/08 10:21:59;;;;;;;3.30;2.22;;;;;;;;;;5019062;28;20033;-75
2022/05/08 10:24:32;;;;;;;6.25;2.50;;;;;;;;;;5021574;28;20033;-73
2022/05/08 10:27:13;;;;;;;4.25;2.83;;;;;;;;;;5019800;28;20048;-73
2022/05/08 10:29:39;;;;;;;3.30;2.30;;;;;;;;;;5016736;28;20098;-76
2022/05/08 10:32:10;;;;;;;3.83;2.40;;;;;;;;;;5013695;28;20069;-73
2022/05/08 10:34:39;;;;;;;3.85;2.40;;;;;;;;;;5007954;28;20034;-74
2022/05/08 10:37:28;;;;;;;2.40;2.15;;;;;;;;;;5018017;28;20145;-74
2022/05/08 10:39:54;;;;;;;4.78;2.22;;;;;;;;;;5008240;28;20121;-75
2022/05/08 10:42:24;;;;;;;4.57;2.55;;;;;;;;;;5011689;28;20054;-75
2022/05/08 10:44:50;;;;;;;4.75;2.60;;;;;;;;;;5017316;28;20041;-74
2022/05/08 10:47:36;;;;;;;2.53;2.30;;;;;;;;;;5015861;28;20033;-75
2022/05/08 10:50:06;;;;;;;3.25;2.40;;;;;;;;;;5016831;28;20026;-75
2022/05/08 10:52:32;;;;;;;2.78;2.10;;;;;;;;;;5013012;28;20091;-75
2022/05/08 10:54:59;;;;;;;2.58;2.30;;;;;;;;;;5013680;28;20042;-75
2022/05/08 10:57:32;;;;;;;3.40;2.00;;;;;;;;;;5017339;28;20084;-76
2022/05/08 10:59:59;;;;;;;2.55;2.20;;;;;;;;;;5013479;28;20036;-76
2022/05/08 11:02:50;;;;;;;2.78;1.90;;;;;;;;;;5020233;28;20030;-76
2022/05/08 11:05:36;;;;;;;4.63;2.75;;;;;;;;;;5016061;28;20025;-76
2022/05/08 11:08:04;;;;;;;2.53;2.17;;;;;;;;;;5013174;28;20025;-79
2022/05/08 11:10:31;;;;;;;3.53;1.98;;;;;;;;;;5011992;28;20029;-81
2022/05/08 11:13:00;;;;;;;2.10;1.83;;;;;;;;;;5010839;28;20118;-76
2022/05/08 11:15:27;;;;;;;3.10;2.17;;;;;;;;;;5011322;28;20042;-79
2022/05/08 11:18:09;;;;;;;2.00;1.80;;;;;;;;;;5014079;28;20022;-79
2022/05/08 11:20:43;;;;;;;2.35;2.00;;;;;;;;;;5013882;28;20074;-79
2022/05/08 11:23:13;;;;;;;2.20;2.00;;;;;;;;;;5011110;28;20042;-79
2022/05/08 11:25:39;;;;;;;3.05;2.55;;;;;;;;;;5011419;28;20038;-81
2022/05/08 11:28:05;;;;;;;3.13;2.10;;;;;;;;;;5007569;28;20061;-79
2022/05/08 11:30:32;;;;;;;2.50;2.03;;;;;;;;;;5011911;28;20038;-77
2022/05/08 11:36:09;;;;;;;3.15;2.40;;;;;;;;;;5011296;28;20516;-78
2022/05/08 11:38:48;;;;;;;3.33;1.90;;;;;;;;;;5016508;28;20455;-75
2022/05/08 11:41:15;;;;;;;2.42;1.92;;;;;;;;;;5014862;28;20495;-78
2022/05/08 11:43:51;;;;;;;2.53;2.00;;;;;;;;;;5010437;28;20026;-77
2022/05/08 11:46:18;;;;;;;1.95;1.80;;;;;;;;;;5024491;28;20057;-76
2022/05/08 11:48:47;;;;;;;4.03;1.90;;;;;;;;;;5012268;28;20041;-77
2022/05/08 11:51:18;;;;;;;2.20;2.00;;;;;;;;;;5011460;28;20057;-74
2022/05/08 11:53:45;;;;;;;3.67;2.35;;;;;;;;;;5010377;28;20033;-76
2022/05/08 11:56:26;;;;;;;3.15;1.98;;;;;;;;;;5008220;28;20033;-76
2022/05/08 11:58:53;;;;;;;3.20;2.45;;;;;;;;;;5010005;28;20343;-76
2022/05/08 12:01:29;;;;;;;2.35;2.05;;;;;;;;;;5002889;28;20249;-78
2022/05/08 12:03:56;;;;;;;3.25;1.90;;;;;;;;;;5009850;28;20041;-77
2022/05/08 12:06:23;;;;;;;3.25;2.10;;;;;;;;;;5005686;28;20030;-76
2022/05/08 12:08:49;;;;;;;2.58;2.10;;;;;;;;;;5010143;28;20029;-74
2022/05/08 12:11:33;;;;;;;2.28;1.92;;;;;;;;;;5007976;28;20033;-79
2022/05/08 12:14:03;;;;;;;2.10;1.90;;;;;;;;;;5006173;28;20843;-75
2022/05/08 12:16:31;;;;;;;2.60;2.03;;;;;;;;;;5009324;28;20046;-76
2022/05/08 12:19:11;;;;;;;1.90;1.70;;;;;;;;;;5008595;28;20400;-78
2022/05/08 12:21:38;;;;;;;2.13;1.85;;;;;;;;;;5012042;28;20022;-77
2022/05/08 12:24:08;;;;;;;2.92;1.80;;;;;;;;;;5009635;28;20037;-79
2022/05/08 12:26:34;;;;;;;2.83;1.80;;;;;;;;;;5008809;28;20053;-76
2022/05/08 12:29:00;;;;;;;3.03;2.08;;;;;;;;;;5008543;28;20484;-76
2022/05/08 12:31:26;;;;;;;1.98;1.70;;;;;;;;;;5007404;28;20041;-74
2022/05/08 12:33:52;;;;;;;2.85;1.90;;;;;;;;;;5007821;28;20057;-78
2022/05/08 12:36:18;;;;;;;2.22;1.67;;;;;;;;;;5008678;28;20040;-78
2022/05/08 12:38:45;;;;;;;2.10;1.90;;;;;;;;;;5008910;28;20056;-77
2022/05/08 12:41:12;;;;;;;2.95;1.65;;;;;;;;;;5010251;28;20026;-79
2022/05/08 12:43:38;;;;;;;2.25;1.90;;;;;;;;;;5009334;28;20395;-76
2022/05/08 12:46:04;;;;;;;2.58;2.05;;;;;;;;;;5007045;28;20480;-76
2022/05/08 12:48:30;;;;;;;3.38;2.38;;;;;;;;;;5006989;28;20038;-76
2022/05/08 12:50:56;;;;;;;2.70;1.88;;;;;;;;;;5006618;28;20038;-74
2022/05/08 12:53:22;;;;;;;2.72;2.30;;;;;;;;;;5008524;28;20061;-77
2022/05/08 12:55:48;;;;;;;4.18;2.00;;;;;;;;;;5009148;28;20033;-77
2022/05/08 13:00:59;;;;;;;2.47;1.90;;;;;;;;;;5010047;28;20072;-76
2022/05/08 13:03:26;;;;;;;2.88;1.90;;;;;;;;;;5015121;28;20030;-76
2022/05/08 13:05:52;;;;;;;3.35;1.90;;;;;;;;;;5013617;28;20029;-77
2022/05/08 13:08:19;;;;;;;2.15;1.83;;;;;;;;;;5008531;28;20125;-77
2022/05/08 13:10:45;;;;;;;1.85;1.75;;;;;;;;;;5010807;28;20037;-77
2022/05/08 13:13:11;;;;;;;2.05;1.80;;;;;;;;;;5011696;28;20045;-75
2022/05/08 13:15:37;;;;;;;4.63;2.40;;;;;;;;;;5008659;28;20486;-75
2022/05/08 13:18:03;;;;;;;2.42;1.70;;;;;;;;;;5007099;28;20034;-76
2022/05/08 13:20:30;;;;;;;3.40;2.10;;;;;;;;;;5009744;28;20056;-75
2022/05/08 13:22:56;;;;;;;2.33;1.95;;;;;;;;;;5006912;28;20029;-74
2022/05/08 13:25:22;;;;;;;4.03;2.45;;;;;;;;;;5012515;28;20026;-76
2022/05/08 13:27:48;;;;;;;3.95;2.40;;;;;;;;;;5009451;28;20034;-76
2022/05/08 13:30:14;;;;;;;3.95;2.25;;;;;;;;;;5012584;28;20038;-73
2022/05/08 13:32:40;;;;;;;2.60;2.00;;;;;;;;;;5008406;28;20389;-73
2022/05/08 13:35:07;;;;;;;3.30;2.17;;;;;;;;;;5008229;28;20026;-76
2022/05/08 13:37:33;;;;;;;4.78;2.10;;;;;;;;;;5007841;28;20030;-76
2022/05/08 13:39:59;;;;;;;3.40;2.30;;;;;;;;;;5006217;28;21081;-76
2022/05/08 13:42:26;;;;;;;4.22;2.13;;;;;;;;;;5006955;28;20038;-75
2022/05/08 13:44:55;;;;;;;2.72;2.30;;;;;;;;;;5007319;28;20565;-77
2022/05/08 13:47:22;;;;;;;3.10;2.10;;;;;;;;;;5004479;28;20036;-74
2022/05/08 13:49:48;;;;;;;4.72;2.25;;;;;;;;;;5004858;28;20405;-74
2022/05/08 13:52:14;;;;;;;4.15;2.25;;;;;;;;;;5006362;28;20034;-75
2022/05/08 13:54:42;;;;;;;2.65;2.10;;;;;;;;;;5003901;28;20029;-75
2022/05/08 13:57:08;;;;;;;3.80;2.40;;;;;;;;;;5017776;28;20052;-74
2022/05/08 13:59:34;;;;;;;2.38;2.00;;;;;;;;;;5006854;28;20664;-76
2022/05/08 14:02:01;;;;;;;2.63;1.90;;;;;;;;;;5003275;28;20034;-76
2022/05/08 14:04:28;;;;;;;3.60;2.00;;;;;;;;;;5006776;28;20041;-75
2022/05/08 14:06:54;;;;;;;4.25;2.58;;;;;;;;;;5004492;28;20441;-76
2022/05/08 14:09:20;;;;;;;2.72;1.92;;;;;;;;;;5008687;28;20034;-72
2022/05/08 14:11:52;;;;;;;2.90;2.05;;;;;;;;;;5006730;28;20087;-75
2022/05/08 14:14:18;;;;;;;2.17;1.92;;;;;;;;;;5008653;28;20515;-76
2022/05/08 14:16:44;;;;;;;2.13;1.90;;;;;;;;;;5003377;28;20038;-74
2022/05/08 14:19:10;;;;;;;3.60;2.10;;;;;;;;;;5007752;28;20022;-76
2022/05/08 14:21:36;;;;;;;3.65;2.00;;;;;;;;;;5006181;28;20030;-74
2022/05/08 14:24:02;;;;;;;2.53;1.90;;;;;;;;;;5010322;28;20115;-74
2022/05/08 14:26:29;;;;;;;3.67;2.08;;;;;;;;;;5003936;28;20507;-77
2022/05/08 14:28:55;;;;;;;2.63;2.00;;;;;;;;;;5009146;28;20419;-75
2022/05/08 14:36:53;;;;;;;4.60;2.20;;;;;;;;;;5006053;28;20053;-75
2022/05/08 14:39:19;;;;;;;3.20;2.00;;;;;;;;;;5007004;28;20048;-75
2022/05/08 14:41:45;;;;;;;2.83;1.92;;;;;;;;;;5007377;28;20029;-77
2022/05/08 14:44:11;;;;;;;2.97;2.20;;;;;;;;;;5003563;28;20033;-75
2022/05/08 14:46:37;;;;;;;4.93;2.40;;;;;;;;;;5005713;28;20026;-74
2022/05/08 14:49:07;;;;;;;4.00;2.40;;;;;;;;;;5010208;28;20191;-74
2022/05/08 14:51:34;;;;;;;3.53;2.22;;;;;;;;;;5004116;28;20022;-75
2022/05/08 14:54:00;;;;;;;5.00;2.60;;;;;;;;;;5007908;28;20205;-76
2022/05/08 14:56:27;;;;;;;3.38;2.42;;;;;;;;;;5007414;28;20033;-75
2022/05/08 14:58:53;;;;;;;4.05;2.50;;;;;;;;;;5020572;28;20030;-75
2022/05/08 15:01:19;;;;;;;2.75;2.30;;;;;;;;;;5007811;28;20022;-77
2022/05/08 15:03:47;;;;;;;3.38;2.17;;;;;;;;;;5007714;28;20488;-75
2022/05/08 15:06:20;;;;;;;8.90;4.63;;;;;;;;;;5008569;28;20032;-73
2022/05/08 15:08:47;;;;;;;5.43;3.25;;;;;;;;;;5005353;28;20049;-78
2022/05/08 15:11:14;;;;;;;3.40;2.53;;;;;;;;;;5009380;28;20040;-79